sensor_id;sensor_type;location;lat;lon;timestamp;P1;durP1;ratioP1;P2;durP2;ratioP2
982;SDS011;480;48.124;11.578;2023-04-15T00:00:14;2.63;;;2.30;;
982;SDS011;480;48.124;11.578;2023-04-15T00:02:42;2.40;;;2.13;;
982;SDS011;480;48.124;11.578;2023-04-15T00:05:09;3.67;;;2.80;;
982;SDS011;480;48.124;11.578;2023-04-15T00:07:38;3.37;;;2.53;;
982;SDS011;480;48.124;11.578;2023-04-15T00:10:06;2.80;;;1.70;;
982;SDS011;480;48.124;11.578;2023-04-15T00:12:33;2.77;;;2.13;;
982;SDS011;480;48.124;11.578;2023-04-15T00:15:01;4.10;;;2.40;;
982;SDS011;480;48.124;11.578;2023-04-15T00:17:28;4.93;;;2.50;;
982;SDS011;480;48.124;11.578;2023-04-15T00:19:55;2.77;;;2.50;;
982;SDS011;480;48.124;11.578;2023-04-15T00:22:23;2.30;;;2.10;;
982;SDS011;480;48.124;11.578;2023-04-15T00:24:52;2.73;;;2.33;;
982;SDS011;480;48.124;11.578;2023-04-15T00:27:20;2.10;;;1.70;;
982;SDS011;480;48.124;11.578;2023-04-15T00:29:47;3.40;;;2.10;;
982;SDS011;480;48.124;11.578;2023-04-15T00:32:14;3.03;;;2.40;;
982;SDS011;480;48.124;11.578;2023-04-15T00:34:41;2.40;;;2.20;;
982;SDS011;480;48.124;11.578;2023-04-15T00:37:08;2.33;;;2.10;;
982;SDS011;480;48.124;11.578;2023-04-15T00:39:35;2.97;;;2.70;;
982;SDS011;480;48.124;11.578;2023-04-15T00:42:04;4.43;;;2.57;;
982;SDS011;480;48.124;11.578;2023-04-15T00:44:32;4.90;;;2.27;;
982;SDS011;480;48.124;11.578;2023-04-15T00:46:59;7.97;;;2.50;;
982;SDS011;480;48.124;11.578;2023-04-15T00:49:26;2.40;;;2.20;;
982;SDS011;480;48.124;11.578;2023-04-15T00:51:56;2.67;;;2.47;;
982;SDS011;480;48.124;11.578;2023-04-15T00:54:23;3.93;;;2.97;;
982;SDS011;480;48.124;11.578;2023-04-15T00:56:50;3.60;;;2.50;;
982;SDS011;480;48.124;11.578;2023-04-15T00:59:20;3.30;;;2.60;;
982;SDS011;480;48.124;11.578;2023-04-15T01:01:47;3.83;;;2.30;;
982;SDS011;480;48.124;11.578;2023-04-15T01:04:14;2.70;;;2.43;;
982;SDS011;480;48.124;11.578;2023-04-15T01:06:41;7.30;;;2.60;;
982;SDS011;480;48.124;11.578;2023-04-15T01:09:08;2.87;;;2.67;;
982;SDS011;480;48.124;11.578;2023-04-15T01:11:36;3.73;;;2.97;;
982;SDS011;480;48.124;11.578;2023-04-15T01:14:03;3.77;;;2.67;;
982;SDS011;480;48.124;11.578;2023-04-15T01:16:32;2.70;;;2.50;;
982;SDS011;480;48.124;11.578;2023-04-15T01:19:00;3.73;;;3.07;;
982;SDS011;480;48.124;11.578;2023-04-15T01:21:28;4.20;;;2.90;;
982;SDS011;480;48.124;11.578;2023-04-15T01:23:54;3.53;;;2.20;;
982;SDS011;480;48.124;11.578;2023-04-15T01:26:24;2.17;;;2.00;;
982;SDS011;480;48.124;11.578;2023-04-15T01:28:51;3.20;;;2.53;;
982;SDS011;480;48.124;11.578;2023-04-15T01:31:18;3.70;;;3.20;;
982;SDS011;480;48.124;11.578;2023-04-15T01:33:46;5.90;;;2.77;;
982;SDS011;480;48.124;11.578;2023-04-15T01:36:13;3.70;;;2.53;;
982;SDS011;480;48.124;11.578;2023-04-15T01:38:40;4.00;;;3.70;;
982;SDS011;480;48.124;11.578;2023-04-15T01:41:07;2.77;;;2.57;;
982;SDS011;480;48.124;11.578;2023-04-15T01:43:36;4.33;;;3.40;;
982;SDS011;480;48.124;11.578;2023-04-15T01:46:03;5.17;;;2.93;;
982;SDS011;480;48.124;11.578;2023-04-15T01:48:30;5.37;;;3.37;;
982;SDS011;480;48.124;11.578;2023-04-15T01:50:57;3.47;;;2.93;;
982;SDS011;480;48.124;11.578;2023-04-15T01:53:25;3.67;;;3.07;;
982;SDS011;480;48.124;11.578;2023-04-15T01:55:52;3.13;;;2.90;;
982;SDS011;480;48.124;11.578;2023-04-15T01:58:19;3.60;;;2.70;;
982;SDS011;480;48.124;11.578;2023-04-15T02:00:48;5.30;;;2.90;;
982;SDS011;480;48.124;11.578;2023-04-15T02:03:15;4.70;;;2.90;;
982;SDS011;480;48.124;11.578;2023-04-15T02:05:43;2.27;;;2.10;;
982;SDS011;480;48.124;11.578;2023-04-15T02:08:10;5.13;;;3.10;;
982;SDS011;480;48.124;11.578;2023-04-15T02:10:37;3.27;;;2.90;;
982;SDS011;480;48.124;11.578;2023-04-15T02:13:04;4.47;;;2.70;;
982;SDS011;480;48.124;11.578;2023-04-15T02:15:31;3.37;;;2.93;;
982;SDS011;480;48.124;11.578;2023-04-15T02:18:00;5.43;;;3.27;;
982;SDS011;480;48.124;11.578;2023-04-15T02:20:27;6.93;;;2.63;;
982;SDS011;480;48.124;11.578;2023-04-15T02:22:56;3.50;;;2.77;;
982;SDS011;480;48.124;11.578;2023-04-15T02:25:23;3.93;;;3.20;;
982;SDS011;480;48.124;11.578;2023-04-15T02:27:50;4.40;;;3.33;;
982;SDS011;480;48.124;11.578;2023-04-15T02:30:17;2.97;;;2.77;;
982;SDS011;480;48.124;11.578;2023-04-15T02:32:44;4.80;;;3.17;;
982;SDS011;480;48.124;11.578;2023-04-15T02:35:13;7.27;;;3.23;;
982;SDS011;480;48.124;11.578;2023-04-15T02:37:43;3.70;;;2.50;;
982;SDS011;480;48.124;11.578;2023-04-15T02:40:11;10.60;;;3.07;;
982;SDS011;480;48.124;11.578;2023-04-15T02:42:38;3.97;;;3.43;;
982;SDS011;480;48.124;11.578;2023-04-15T02:45:06;3.07;;;2.17;;
982;SDS011;480;48.124;11.578;2023-04-15T02:47:34;4.47;;;2.60;;
982;SDS011;480;48.124;11.578;2023-04-15T02:50:01;3.73;;;3.43;;
982;SDS011;480;48.124;11.578;2023-04-15T02:52:30;4.13;;;3.70;;
982;SDS011;480;48.124;11.578;2023-04-15T02:54:57;3.67;;;2.90;;
982;SDS011;480;48.124;11.578;2023-04-15T02:57:26;2.23;;;2.03;;
982;SDS011;480;48.124;11.578;2023-04-15T02:59:54;5.40;;;3.10;;
982;SDS011;480;48.124;11.578;2023-04-15T03:02:21;4.07;;;3.73;;
982;SDS011;480;48.124;11.578;2023-04-15T03:04:48;4.47;;;3.10;;
982;SDS011;480;48.124;11.578;2023-04-15T03:07:16;8.27;;;2.87;;
982;SDS011;480;48.124;11.578;2023-04-15T03:09:45;3.00;;;2.50;;
982;SDS011;480;48.124;11.578;2023-04-15T03:12:12;3.83;;;2.87;;
982;SDS011;480;48.124;11.578;2023-04-15T03:14:40;4.73;;;2.67;;
982;SDS011;480;48.124;11.578;2023-04-15T03:17:07;3.07;;;2.50;;
982;SDS011;480;48.124;11.578;2023-04-15T03:19:34;3.83;;;2.90;;
982;SDS011;480;48.124;11.578;2023-04-15T03:22:01;2.73;;;2.37;;
982;SDS011;480;48.124;11.578;2023-04-15T03:24:28;3.00;;;2.37;;
982;SDS011;480;48.124;11.578;2023-04-15T03:26:57;3.93;;;2.43;;
982;SDS011;480;48.124;11.578;2023-04-15T03:29:25;2.80;;;2.60;;
982;SDS011;480;48.124;11.578;2023-04-15T03:31:52;2.70;;;2.50;;
982;SDS011;480;48.124;11.578;2023-04-15T03:34:19;2.03;;;1.87;;
982;SDS011;480;48.124;11.578;2023-04-15T03:36:46;6.23;;;3.40;;
982;SDS011;480;48.124;11.578;2023-04-15T03:39:13;3.17;;;2.47;;
982;SDS011;480;48.124;11.578;2023-04-15T03:41:40;2.90;;;2.63;;
982;SDS011;480;48.124;11.578;2023-04-15T03:44:10;4.10;;;3.23;;
982;SDS011;480;48.124;11.578;2023-04-15T03:46:37;3.53;;;2.27;;
982;SDS011;480;48.124;11.578;2023-04-15T03:49:05;3.10;;;2.90;;
982;SDS011;480;48.124;11.578;2023-04-15T03:51:33;5.83;;;2.63;;
982;SDS011;480;48.124;11.578;2023-04-15T03:54:00;3.63;;;2.80;;
982;SDS011;480;48.124;11.578;2023-04-15T03:56:27;2.47;;;2.20;;
982;SDS011;480;48.124;11.578;2023-04-15T03:58:54;5.63;;;3.00;;
982;SDS011;480;48.124;11.578;2023-04-15T04:01:23;2.70;;;2.50;;
982;SDS011;480;48.124;11.578;2023-04-15T04:03:50;3.80;;;3.50;;
982;SDS011;480;48.124;11.578;2023-04-15T04:06:17;5.70;;;2.53;;
982;SDS011;480;48.124;11.578;2023-04-15T04:08:45;2.50;;;2.30;;
982;SDS011;480;48.124;11.578;2023-04-15T04:11:12;2.40;;;2.27;;
982;SDS011;480;48.124;11.578;2023-04-15T04:13:39;6.00;;;3.17;;
982;SDS011;480;48.124;11.578;2023-04-15T04:16:05;6.83;;;3.40;;
982;SDS011;480;48.124;11.578;2023-04-15T04:18:34;7.37;;;2.43;;
982;SDS011;480;48.124;11.578;2023-04-15T04:21:01;3.43;;;2.50;;
982;SDS011;480;48.124;11.578;2023-04-15T04:23:28;3.60;;;2.27;;
982;SDS011;480;48.124;11.578;2023-04-15T04:25:55;4.80;;;2.20;;
982;SDS011;480;48.124;11.578;2023-04-15T04:28:22;8.00;;;2.67;;
982;SDS011;480;48.124;11.578;2023-04-15T04:30:49;5.40;;;2.60;;
982;SDS011;480;48.124;11.578;2023-04-15T04:33:17;3.47;;;2.50;;
982;SDS011;480;48.124;11.578;2023-04-15T04:35:45;5.40;;;3.10;;
982;SDS011;480;48.124;11.578;2023-04-15T04:38:12;3.00;;;2.80;;
982;SDS011;480;48.124;11.578;2023-04-15T04:40:40;2.60;;;2.00;;
982;SDS011;480;48.124;11.578;2023-04-15T04:43:07;2.90;;;2.43;;
982;SDS011;480;48.124;11.578;2023-04-15T04:45:34;2.53;;;2.27;;
982;SDS011;480;48.124;11.578;2023-04-15T04:48:01;2.83;;;2.63;;
982;SDS011;480;48.124;11.578;2023-04-15T04:50:31;5.00;;;2.63;;
982;SDS011;480;48.124;11.578;2023-04-15T04:52:59;3.33;;;3.07;;
982;SDS011;480;48.124;11.578;2023-04-15T04:55:27;2.20;;;2.00;;
982;SDS011;480;48.124;11.578;2023-04-15T04:57:54;2.90;;;2.70;;
982;SDS011;480;48.124;11.578;2023-04-15T05:00:21;3.70;;;2.67;;
982;SDS011;480;48.124;11.578;2023-04-15T05:02:48;4.17;;;2.80;;
982;SDS011;480;48.124;11.578;2023-04-15T05:05:15;2.83;;;2.53;;
982;SDS011;480;48.124;11.578;2023-04-15T05:07:42;2.50;;;2.30;;
982;SDS011;480;48.124;11.578;2023-04-15T05:10:11;3.10;;;2.43;;
982;SDS011;480;48.124;11.578;2023-04-15T05:12:39;3.90;;;2.37;;
982;SDS011;480;48.124;11.578;2023-04-15T05:15:06;2.63;;;2.30;;
982;SDS011;480;48.124;11.578;2023-04-15T05:17:34;4.20;;;2.77;;
982;SDS011;480;48.124;11.578;2023-04-15T05:20:01;3.23;;;2.43;;
982;SDS011;480;48.124;11.578;2023-04-15T05:22:29;2.27;;;1.70;;
982;SDS011;480;48.124;11.578;2023-04-15T05:24:56;2.27;;;2.07;;
982;SDS011;480;48.124;11.578;2023-04-15T05:27:24;4.07;;;2.20;;
982;SDS011;480;48.124;11.578;2023-04-15T05:29:52;2.20;;;2.10;;
982;SDS011;480;48.124;11.578;2023-04-15T05:32:20;3.67;;;2.70;;
982;SDS011;480;48.124;11.578;2023-04-15T05:34:47;3.03;;;1.83;;
982;SDS011;480;48.124;11.578;2023-04-15T05:37:15;1.77;;;1.67;;
982;SDS011;480;48.124;11.578;2023-04-15T05:39:42;1.83;;;1.50;;
982;SDS011;480;48.124;11.578;2023-04-15T05:42:09;1.83;;;1.73;;
982;SDS011;480;48.124;11.578;2023-04-15T05:44:37;1.57;;;1.47;;
982;SDS011;480;48.124;11.578;2023-04-15T05:47:06;2.90;;;2.07;;
982;SDS011;480;48.124;11.578;2023-04-15T05:49:40;3.80;;;2.10;;
982;SDS011;480;48.124;11.578;2023-04-15T05:52:07;1.90;;;1.70;;
982;SDS011;480;48.124;11.578;2023-04-15T05:54:34;10.23;;;2.10;;
982;SDS011;480;48.124;11.578;2023-04-15T05:57:01;1.63;;;1.53;;
982;SDS011;480;48.124;11.578;2023-04-15T05:59:28;2.27;;;1.80;;
982;SDS011;480;48.124;11.578;2023-04-15T06:01:57;2.03;;;1.90;;
982;SDS011;480;48.124;11.578;2023-04-15T06:04:24;2.03;;;1.60;;
982;SDS011;480;48.124;11.578;2023-04-15T06:06:51;2.20;;;2.00;;
982;SDS011;480;48.124;11.578;2023-04-15T06:09:18;1.90;;;1.80;;
982;SDS011;480;48.124;11.578;2023-04-15T06:11:45;2.40;;;1.90;;
982;SDS011;480;48.124;11.578;2023-04-15T06:14:14;4.00;;;1.93;;
982;SDS011;480;48.124;11.578;2023-04-15T06:16:42;5.33;;;2.03;;
982;SDS011;480;48.124;11.578;2023-04-15T06:19:10;1.20;;;1.10;;
982;SDS011;480;48.124;11.578;2023-04-15T06:21:38;1.80;;;1.70;;
982;SDS011;480;48.124;11.578;2023-04-15T06:24:06;1.90;;;1.80;;
982;SDS011;480;48.124;11.578;2023-04-15T06:26:33;1.93;;;1.40;;
982;SDS011;480;48.124;11.578;2023-04-15T06:29:00;3.57;;;3.23;;
982;SDS011;480;48.124;11.578;2023-04-15T06:31:27;1.63;;;1.47;;
982;SDS011;480;48.124;11.578;2023-04-15T06:33:54;1.87;;;1.43;;
982;SDS011;480;48.124;11.578;2023-04-15T06:36:22;2.10;;;1.47;;
982;SDS011;480;48.124;11.578;2023-04-15T06:38:49;2.10;;;1.90;;
982;SDS011;480;48.124;11.578;2023-04-15T06:41:16;2.20;;;1.57;;
982;SDS011;480;48.124;11.578;2023-04-15T06:43:43;3.93;;;2.00;;
982;SDS011;480;48.124;11.578;2023-04-15T06:46:10;2.13;;;1.60;;
982;SDS011;480;48.124;11.578;2023-04-15T06:48:37;1.70;;;1.60;;
982;SDS011;480;48.124;11.578;2023-04-15T06:51:05;1.77;;;1.20;;
982;SDS011;480;48.124;11.578;2023-04-15T06:53:33;1.43;;;1.33;;
982;SDS011;480;48.124;11.578;2023-04-15T06:56:05;2.07;;;1.70;;
982;SDS011;480;48.124;11.578;2023-04-15T06:58:33;2.97;;;1.90;;
982;SDS011;480;48.124;11.578;2023-04-15T07:01:00;2.53;;;1.50;;
982;SDS011;480;48.124;11.578;2023-04-15T07:03:27;3.93;;;1.53;;
982;SDS011;480;48.124;11.578;2023-04-15T07:05:55;1.53;;;1.30;;
982;SDS011;480;48.124;11.578;2023-04-15T07:08:22;2.47;;;1.37;;
982;SDS011;480;48.124;11.578;2023-04-15T07:10:51;1.57;;;1.47;;
982;SDS011;480;48.124;11.578;2023-04-15T07:13:18;1.87;;;1.50;;
982;SDS011;480;48.124;11.578;2023-04-15T07:15:45;2.50;;;1.53;;
982;SDS011;480;48.124;11.578;2023-04-15T07:18:12;2.07;;;1.53;;
982;SDS011;480;48.124;11.578;2023-04-15T07:20:39;3.10;;;1.70;;
982;SDS011;480;48.124;11.578;2023-04-15T07:23:06;1.80;;;1.17;;
982;SDS011;480;48.124;11.578;2023-04-15T07:25:33;3.53;;;1.83;;
982;SDS011;480;48.124;11.578;2023-04-15T07:28:01;2.60;;;1.73;;
982;SDS011;480;48.124;11.578;2023-04-15T07:30:28;2.57;;;1.10;;
982;SDS011;480;48.124;11.578;2023-04-15T07:32:56;4.50;;;1.70;;
982;SDS011;480;48.124;11.578;2023-04-15T07:35:24;1.80;;;1.50;;
982;SDS011;480;48.124;11.578;2023-04-15T07:37:51;1.57;;;1.47;;
982;SDS011;480;48.124;11.578;2023-04-15T07:40:18;2.30;;;1.17;;
982;SDS011;480;48.124;11.578;2023-04-15T07:42:46;3.23;;;1.90;;
982;SDS011;480;48.124;11.578;2023-04-15T07:45:14;1.70;;;1.60;;
982;SDS011;480;48.124;11.578;2023-04-15T07:47:41;2.97;;;1.40;;
982;SDS011;480;48.124;11.578;2023-04-15T07:50:09;2.00;;;1.03;;
982;SDS011;480;48.124;11.578;2023-04-15T07:52:36;2.80;;;1.47;;
982;SDS011;480;48.124;11.578;2023-04-15T07:55:04;0.80;;;0.80;;
982;SDS011;480;48.124;11.578;2023-04-15T07:57:32;2.00;;;1.27;;
982;SDS011;480;48.124;11.578;2023-04-15T07:59:59;1.67;;;1.03;;
982;SDS011;480;48.124;11.578;2023-04-15T08:02:29;2.00;;;1.90;;
982;SDS011;480;48.124;11.578;2023-04-15T08:04:56;2.27;;;1.73;;
982;SDS011;480;48.124;11.578;2023-04-15T08:07:23;1.53;;;1.40;;
982;SDS011;480;48.124;11.578;2023-04-15T08:09:51;2.03;;;1.07;;
982;SDS011;480;48.124;11.578;2023-04-15T08:12:18;3.60;;;1.30;;
982;SDS011;480;48.124;11.578;2023-04-15T08:14:45;3.03;;;1.60;;
982;SDS011;480;48.124;11.578;2023-04-15T08:17:13;1.70;;;1.60;;
982;SDS011;480;48.124;11.578;2023-04-15T08:19:41;3.00;;;1.70;;
982;SDS011;480;48.124;11.578;2023-04-15T08:22:09;4.63;;;1.60;;
982;SDS011;480;48.124;11.578;2023-04-15T08:24:36;4.20;;;1.83;;
982;SDS011;480;48.124;11.578;2023-04-15T08:27:03;4.43;;;1.60;;
982;SDS011;480;48.124;11.578;2023-04-15T08:29:31;5.07;;;2.00;;
982;SDS011;480;48.124;11.578;2023-04-15T08:31:59;3.07;;;1.93;;
982;SDS011;480;48.124;11.578;2023-04-15T08:34:26;2.33;;;1.93;;
982;SDS011;480;48.124;11.578;2023-04-15T08:36:56;2.00;;;1.43;;
982;SDS011;480;48.124;11.578;2023-04-15T08:39:23;2.07;;;1.47;;
982;SDS011;480;48.124;11.578;2023-04-15T08:41:51;1.70;;;1.60;;
982;SDS011;480;48.124;11.578;2023-04-15T08:44:28;2.30;;;2.00;;
982;SDS011;480;48.124;11.578;2023-04-15T08:46:57;2.53;;;2.33;;
982;SDS011;480;48.124;11.578;2023-04-15T08:49:26;2.20;;;2.00;;
982;SDS011;480;48.124;11.578;2023-04-15T08:51:56;6.27;;;2.33;;
982;SDS011;480;48.124;11.578;2023-04-15T08:54:24;1.67;;;1.57;;
982;SDS011;480;48.124;11.578;2023-04-15T08:56:52;2.20;;;2.10;;
982;SDS011;480;48.124;11.578;2023-04-15T08:59:19;1.53;;;1.20;;
982;SDS011;480;48.124;11.578;2023-04-15T09:01:47;4.47;;;2.00;;
982;SDS011;480;48.124;11.578;2023-04-15T09:04:15;3.67;;;2.50;;
982;SDS011;480;48.124;11.578;2023-04-15T09:06:42;2.50;;;1.60;;
982;SDS011;480;48.124;11.578;2023-04-15T09:09:12;1.93;;;1.77;;
982;SDS011;480;48.124;11.578;2023-04-15T09:11:39;4.03;;;2.40;;
982;SDS011;480;48.124;11.578;2023-04-15T09:14:07;2.97;;;2.63;;
982;SDS011;480;48.124;11.578;2023-04-15T09:19:22;2.80;;;1.70;;
982;SDS011;480;48.124;11.578;2023-04-15T09:21:49;6.20;;;2.13;;
982;SDS011;480;48.124;11.578;2023-04-15T09:24:18;2.00;;;1.33;;
982;SDS011;480;48.124;11.578;2023-04-15T09:26:46;2.03;;;1.30;;
982;SDS011;480;48.124;11.578;2023-04-15T09:29:13;3.77;;;2.50;;
982;SDS011;480;48.124;11.578;2023-04-15T09:31:40;3.33;;;2.10;;
982;SDS011;480;48.124;11.578;2023-04-15T09:34:07;4.20;;;2.67;;
982;SDS011;480;48.124;11.578;2023-04-15T09:36:37;4.80;;;2.00;;
982;SDS011;480;48.124;11.578;2023-04-15T09:39:18;2.20;;;2.00;;
982;SDS011;480;48.124;11.578;2023-04-15T09:41:46;4.57;;;2.50;;
982;SDS011;480;48.124;11.578;2023-04-15T09:44:29;2.30;;;1.97;;
982;SDS011;480;48.124;11.578;2023-04-15T09:46:56;2.40;;;2.20;;
982;SDS011;480;48.124;11.578;2023-04-15T09:49:23;4.30;;;2.37;;
982;SDS011;480;48.124;11.578;2023-04-15T09:51:50;4.17;;;3.10;;
982;SDS011;480;48.124;11.578;2023-04-15T09:54:19;3.83;;;2.23;;
982;SDS011;480;48.124;11.578;2023-04-15T09:56:47;3.90;;;2.47;;
982;SDS011;480;48.124;11.578;2023-04-15T09:59:14;3.23;;;2.93;;
982;SDS011;480;48.124;11.578;2023-04-15T10:01:41;3.97;;;2.50;;
982;SDS011;480;48.124;11.578;2023-04-15T10:04:08;3.03;;;2.73;;
982;SDS011;480;48.124;11.578;2023-04-15T10:06:35;3.20;;;2.50;;
982;SDS011;480;48.124;11.578;2023-04-15T10:09:03;4.53;;;2.90;;
982;SDS011;480;48.124;11.578;2023-04-15T10:11:34;3.37;;;2.60;;
982;SDS011;480;48.124;11.578;2023-04-15T10:14:01;6.90;;;2.43;;
982;SDS011;480;48.124;11.578;2023-04-15T10:16:29;3.97;;;2.80;;
982;SDS011;480;48.124;11.578;2023-04-15T10:18:59;2.77;;;2.57;;
982;SDS011;480;48.124;11.578;2023-04-15T10:21:29;4.80;;;2.67;;
982;SDS011;480;48.124;11.578;2023-04-15T10:23:56;4.70;;;3.13;;
982;SDS011;480;48.124;11.578;2023-04-15T10:26:23;4.40;;;3.53;;
982;SDS011;480;48.124;11.578;2023-04-15T10:28:53;3.10;;;2.80;;
982;SDS011;480;48.124;11.578;2023-04-15T10:31:21;4.47;;;3.60;;
982;SDS011;480;48.124;11.578;2023-04-15T10:33:48;5.57;;;4.17;;
982;SDS011;480;48.124;11.578;2023-04-15T10:36:17;3.80;;;3.03;;
982;SDS011;480;48.124;11.578;2023-04-15T10:38:45;3.60;;;3.30;;
982;SDS011;480;48.124;11.578;2023-04-15T10:41:13;3.77;;;3.40;;
982;SDS011;480;48.124;11.578;2023-04-15T10:43:46;3.63;;;2.73;;
982;SDS011;480;48.124;11.578;2023-04-15T10:46:17;3.93;;;2.87;;
982;SDS011;480;48.124;11.578;2023-04-15T10:48:46;3.37;;;2.33;;
982;SDS011;480;48.124;11.578;2023-04-15T10:51:14;3.00;;;2.70;;
982;SDS011;480;48.124;11.578;2023-04-15T10:53:41;4.33;;;3.40;;
982;SDS011;480;48.124;11.578;2023-04-15T10:56:08;4.93;;;3.40;;
982;SDS011;480;48.124;11.578;2023-04-15T10:58:40;3.90;;;3.40;;
982;SDS011;480;48.124;11.578;2023-04-15T11:01:07;4.57;;;3.40;;
982;SDS011;480;48.124;11.578;2023-04-15T11:03:37;2.90;;;2.60;;
982;SDS011;480;48.124;11.578;2023-04-15T11:06:05;4.43;;;3.10;;
982;SDS011;480;48.124;11.578;2023-04-15T11:08:52;4.13;;;2.80;;
982;SDS011;480;48.124;11.578;2023-04-15T11:11:20;7.23;;;3.00;;
982;SDS011;480;48.124;11.578;2023-04-15T11:13:47;4.17;;;3.13;;
982;SDS011;480;48.124;11.578;2023-04-15T11:16:16;3.10;;;2.83;;
982;SDS011;480;48.124;11.578;2023-04-15T11:18:53;4.17;;;3.63;;
982;SDS011;480;48.124;11.578;2023-04-15T11:21:23;3.23;;;2.87;;
982;SDS011;480;48.124;11.578;2023-04-15T11:23:52;3.37;;;3.07;;
982;SDS011;480;48.124;11.578;2023-04-15T11:26:19;4.53;;;3.70;;
982;SDS011;480;48.124;11.578;2023-04-15T11:28:51;5.60;;;4.27;;
982;SDS011;480;48.124;11.578;2023-04-15T11:31:19;5.87;;;3.53;;
982;SDS011;480;48.124;11.578;2023-04-15T11:33:54;4.93;;;3.10;;
982;SDS011;480;48.124;11.578;2023-04-15T11:36:23;3.83;;;3.53;;
982;SDS011;480;48.124;11.578;2023-04-15T11:38:52;3.87;;;3.13;;
982;SDS011;480;48.124;11.578;2023-04-15T11:41:19;3.97;;;3.60;;
982;SDS011;480;48.124;11.578;2023-04-15T11:43:47;6.63;;;3.70;;
982;SDS011;480;48.124;11.578;2023-04-15T11:46:15;5.67;;;4.30;;
982;SDS011;480;48.124;11.578;2023-04-15T11:48:43;3.17;;;2.87;;
982;SDS011;480;48.124;11.578;2023-04-15T11:51:13;4.80;;;4.40;;
982;SDS011;480;48.124;11.578;2023-04-15T11:53:41;4.97;;;4.53;;
982;SDS011;480;48.124;11.578;2023-04-15T11:56:10;6.03;;;4.90;;
982;SDS011;480;48.124;11.578;2023-04-15T11:58:43;6.43;;;3.77;;
982;SDS011;480;48.124;11.578;2023-04-15T12:01:10;5.00;;;4.30;;
982;SDS011;480;48.124;11.578;2023-04-15T12:03:37;4.23;;;3.83;;
982;SDS011;480;48.124;11.578;2023-04-15T12:06:08;4.83;;;4.10;;
982;SDS011;480;48.124;11.578;2023-04-15T12:08:54;3.60;;;3.30;;
982;SDS011;480;48.124;11.578;2023-04-15T12:11:28;5.17;;;3.27;;
982;SDS011;480;48.124;11.578;2023-04-15T12:13:57;4.60;;;3.43;;
982;SDS011;480;48.124;11.578;2023-04-15T12:16:28;3.53;;;3.23;;
982;SDS011;480;48.124;11.578;2023-04-15T12:18:56;3.90;;;3.60;;
982;SDS011;480;48.124;11.578;2023-04-15T12:21:26;4.80;;;3.60;;
982;SDS011;480;48.124;11.578;2023-04-15T12:24:00;3.60;;;3.30;;
982;SDS011;480;48.124;11.578;2023-04-15T12:26:28;3.60;;;3.30;;
982;SDS011;480;48.124;11.578;2023-04-15T12:29:01;3.67;;;3.37;;
982;SDS011;480;48.124;11.578;2023-04-15T12:31:29;5.00;;;3.13;;
982;SDS011;480;48.124;11.578;2023-04-15T12:33:56;3.57;;;3.27;;
982;SDS011;480;48.124;11.578;2023-04-15T12:36:26;3.70;;;3.40;;
982;SDS011;480;48.124;11.578;2023-04-15T12:38:54;3.40;;;3.10;;
982;SDS011;480;48.124;11.578;2023-04-15T12:41:21;5.20;;;4.13;;
982;SDS011;480;48.124;11.578;2023-04-15T12:43:49;4.57;;;3.07;;
982;SDS011;480;48.124;11.578;2023-04-15T12:46:16;4.57;;;3.37;;
982;SDS011;480;48.124;11.578;2023-04-15T12:48:44;4.17;;;3.23;;
982;SDS011;480;48.124;11.578;2023-04-15T12:51:11;4.00;;;3.63;;
982;SDS011;480;48.124;11.578;2023-04-15T12:53:40;5.27;;;3.30;;
982;SDS011;480;48.124;11.578;2023-04-15T12:56:07;5.10;;;3.10;;
982;SDS011;480;48.124;11.578;2023-04-15T12:58:34;3.67;;;2.70;;
982;SDS011;480;48.124;11.578;2023-04-15T13:01:01;3.03;;;2.20;;
982;SDS011;480;48.124;11.578;2023-04-15T13:03:28;2.50;;;2.30;;
982;SDS011;480;48.124;11.578;2023-04-15T13:05:55;3.23;;;2.63;;
982;SDS011;480;48.124;11.578;2023-04-15T13:08:22;3.00;;;2.80;;
982;SDS011;480;48.124;11.578;2023-04-15T13:10:51;2.97;;;2.77;;
982;SDS011;480;48.124;11.578;2023-04-15T13:13:18;3.30;;;2.70;;
982;SDS011;480;48.124;11.578;2023-04-15T13:15:45;4.13;;;2.13;;
982;SDS011;480;48.124;11.578;2023-04-15T13:18:12;4.03;;;2.47;;
982;SDS011;480;48.124;11.578;2023-04-15T13:20:39;2.57;;;2.23;;
982;SDS011;480;48.124;11.578;2023-04-15T13:23:06;2.47;;;2.27;;
982;SDS011;480;48.124;11.578;2023-04-15T13:25:33;3.90;;;2.90;;
982;SDS011;480;48.124;11.578;2023-04-15T13:28:01;5.43;;;2.80;;
982;SDS011;480;48.124;11.578;2023-04-15T13:30:28;3.00;;;2.80;;
982;SDS011;480;48.124;11.578;2023-04-15T13:32:56;4.33;;;2.40;;
982;SDS011;480;48.124;11.578;2023-04-15T13:35:22;3.80;;;2.50;;
982;SDS011;480;48.124;11.578;2023-04-15T13:37:50;2.53;;;2.30;;
982;SDS011;480;48.124;11.578;2023-04-15T13:40:18;2.87;;;2.60;;
982;SDS011;480;48.124;11.578;2023-04-15T13:42:45;4.07;;;3.37;;
982;SDS011;480;48.124;11.578;2023-04-15T13:45:14;2.80;;;2.60;;
982;SDS011;480;48.124;11.578;2023-04-15T13:47:40;2.83;;;2.63;;
982;SDS011;480;48.124;11.578;2023-04-15T13:50:08;3.20;;;2.90;;
982;SDS011;480;48.124;11.578;2023-04-15T13:52:35;3.30;;;2.90;;
982;SDS011;480;48.124;11.578;2023-04-15T13:55:03;2.97;;;2.77;;
982;SDS011;480;48.124;11.578;2023-04-15T13:57:31;6.40;;;4.40;;
982;SDS011;480;48.124;11.578;2023-04-15T13:59:58;5.80;;;2.97;;
982;SDS011;480;48.124;11.578;2023-04-15T14:02:26;4.67;;;3.97;;
982;SDS011;480;48.124;11.578;2023-04-15T14:04:53;3.70;;;3.40;;
982;SDS011;480;48.124;11.578;2023-04-15T14:07:20;4.70;;;3.53;;
982;SDS011;480;48.124;11.578;2023-04-15T14:09:48;5.37;;;4.00;;
982;SDS011;480;48.124;11.578;2023-04-15T14:12:15;6.80;;;2.70;;
982;SDS011;480;48.124;11.578;2023-04-15T14:14:42;2.87;;;2.67;;
982;SDS011;480;48.124;11.578;2023-04-15T14:17:09;3.77;;;3.47;;
982;SDS011;480;48.124;11.578;2023-04-15T14:19:38;4.87;;;3.20;;
982;SDS011;480;48.124;11.578;2023-04-15T14:22:05;3.47;;;3.17;;
982;SDS011;480;48.124;11.578;2023-04-15T14:24:32;4.10;;;3.70;;
982;SDS011;480;48.124;11.578;2023-04-15T14:26:59;2.83;;;2.30;;
982;SDS011;480;48.124;11.578;2023-04-15T14:29:26;3.20;;;2.90;;
982;SDS011;480;48.124;11.578;2023-04-15T14:31:53;7.27;;;2.50;;
982;SDS011;480;48.124;11.578;2023-04-15T14:34:21;2.73;;;2.17;;
982;SDS011;480;48.124;11.578;2023-04-15T14:36:50;2.90;;;2.67;;
982;SDS011;480;48.124;11.578;2023-04-15T14:39:18;2.83;;;2.60;;
982;SDS011;480;48.124;11.578;2023-04-15T14:41:45;3.80;;;3.17;;
982;SDS011;480;48.124;11.578;2023-04-15T14:44:12;2.80;;;2.60;;
982;SDS011;480;48.124;11.578;2023-04-15T14:46:40;6.03;;;3.37;;
982;SDS011;480;48.124;11.578;2023-04-15T14:49:07;4.00;;;3.10;;
982;SDS011;480;48.124;11.578;2023-04-15T14:51:34;3.67;;;2.90;;
982;SDS011;480;48.124;11.578;2023-04-15T14:54:02;3.20;;;2.80;;
982;SDS011;480;48.124;11.578;2023-04-15T14:56:29;3.07;;;2.77;;
982;SDS011;480;48.124;11.578;2023-04-15T14:58:56;6.67;;;2.60;;
982;SDS011;480;48.124;11.578;2023-04-15T15:01:23;4.00;;;3.30;;
982;SDS011;480;48.124;11.578;2023-04-15T15:03:50;3.33;;;2.50;;
982;SDS011;480;48.124;11.578;2023-04-15T15:06:19;2.73;;;2.53;;
982;SDS011;480;48.124;11.578;2023-04-15T15:08:47;4.00;;;3.10;;
982;SDS011;480;48.124;11.578;2023-04-15T15:11:15;3.00;;;2.70;;
982;SDS011;480;48.124;11.578;2023-04-15T15:13:43;4.27;;;3.37;;
982;SDS011;480;48.124;11.578;2023-04-15T15:16:09;3.33;;;2.63;;
982;SDS011;480;48.124;11.578;2023-04-15T15:18:37;3.30;;;3.10;;
982;SDS011;480;48.124;11.578;2023-04-15T15:21:04;3.47;;;3.27;;
982;SDS011;480;48.124;11.578;2023-04-15T15:23:31;4.30;;;3.90;;
982;SDS011;480;48.124;11.578;2023-04-15T15:25:58;3.90;;;3.50;;
982;SDS011;480;48.124;11.578;2023-04-15T15:28:26;4.10;;;3.40;;
982;SDS011;480;48.124;11.578;2023-04-15T15:30:53;3.50;;;3.20;;
982;SDS011;480;48.124;11.578;2023-04-15T15:33:20;3.83;;;3.47;;
982;SDS011;480;48.124;11.578;2023-04-15T15:35:47;3.83;;;3.30;;